Time;durP1;ratioP1;P1;durP2;ratioP2;P2;SDS_P1;SDS_P2;PMS_P1;PMS_P2;Temp;Humidity;BMP_temperature;BMP_pressure;BME280_temperature;BME280_humidity;BME280_pressure;Samples;Min_cycle;Max_cycle;Signal;HPM_P1;HPM_P2
2020/12/20 00:00:58;;;;;;;128.70;38.15;;;0.20;99.90;;;;;;5056091;28;20028;-84
2020/12/20 00:03:24;;;;;;;82.97;27.33;;;0.20;99.90;;;;;;5067858;28;20037;-85
2020/12/20 00:05:50;;;;;;;146.45;46.35;;;0.20;99.90;;;;;;5055673;28;20017;-84
2020/12/20 00:08:15;;;;;;;113.03;36.88;;;0.20;99.90;;;;;;5053843;28;20032;-84
2020/12/20 00:10:41;;;;;;;164.88;34.83;;;0.20;99.90;;;;;;5054542;28;20503;-85
2020/12/20 00:13:07;;;;;;;127.25;31.17;;;0.10;99.90;;;;;;5035408;28;20056;-85
2020/12/20 00:15:33;;;;;;;113.55;31.80;;;0.10;99.90;;;;;;5053912;28;20064;-86
2020/12/20 00:17:58;;;;;;;128.05;34.65;;;0.10;99.90;;;;;;5035954;28;20032;-85
2020/12/20 00:20:24;;;;;;;107.18;35.83;;;0.10;99.90;;;;;;5053451;28;20371;-85
2020/12/20 00:22:50;;;;;;;165.10;44.20;;;0.10;99.90;;;;;;5058809;28;20033;-86
2020/12/20 00:25:16;;;;;;;140.80;36.90;;;0.20;99.90;;;;;;5073413;28;20104;-85
2020/12/20 00:27:42;;;;;;;104.90;34.83;;;0.20;99.90;;;;;;5056038;28;20028;-85
2020/12/20 00:30:09;;;;;;;122.88;37.65;;;0.20;99.90;;;;;;5074762;28;20048;-85
2020/12/20 00:32:35;;;;;;;101.50;31.52;;;0.20;99.90;;;;;;5075633;28;20394;-85
2020/12/20 00:35:01;;;;;;;119.07;31.38;;;0.20;99.90;;;;;;5073345;28;20025;-85
2020/12/20 00:37:26;;;;;;;90.43;30.60;;;0.10;99.90;;;;;;5057182;28;20112;-85
2020/12/20 00:39:53;;;;;;;131.52;36.45;;;0.10;99.90;;;;;;5075965;28;20028;-85
2020/12/20 00:42:19;;;;;;;156.93;40.13;;;0.10;99.90;;;;;;5075140;28;20060;-86
2020/12/20 00:44:45;;;;;;;187.82;50.53;;;0.10;99.90;;;;;;5054936;28;20063;-86
2020/12/20 00:47:11;;;;;;;134.55;40.60;;;0.00;99.90;;;;;;5058033;28;20052;-86
2020/12/20 00:49:36;;;;;;;109.20;36.33;;;0.00;99.90;;;;;;5073455;28;20079;-84
2020/12/20 00:52:05;;;;;;;130.32;39.47;;;0.00;99.90;;;;;;5053658;28;20024;-86
2020/12/20 00:54:30;;;;;;;96.78;36.55;;;0.00;99.90;;;;;;5053074;28;20378;-86
2020/12/20 00:56:56;;;;;;;133.20;42.83;;;0.10;99.90;;;;;;5035427;28;20029;-87
2020/12/20 00:59:22;;;;;;;90.82;36.00;;;0.10;99.90;;;;;;5053144;28;20090;-87
2020/12/20 01:01:48;;;;;;;82.35;34.85;;;0.10;99.90;;;;;;5053000;28;20479;-84
2020/12/20 01:04:14;;;;;;;86.38;37.85;;;0.20;99.90;;;;;;5054241;28;20021;-84
2020/12/20 01:06:39;;;;;;;86.75;33.42;;;0.20;99.90;;;;;;5052845;28;20027;-85
2020/12/20 01:09:06;;;;;;;86.53;33.42;;;0.20;99.90;;;;;;5054988;28;20025;-84
2020/12/20 01:11:33;;;;;;;91.85;31.35;;;0.10;99.90;;;;;;5034859;28;20429;-85
2020/12/20 01:14:01;;;;;;;88.50;34.50;;;0.10;99.90;;;;;;5034812;28;20090;-85
2020/12/20 01:16:31;;;;;;;96.43;36.40;;;0.00;99.90;;;;;;5034995;28;20032;-84
2020/12/20 01:19:00;;;;;;;91.10;36.45;;;-0.10;99.90;;;;;;5034881;28;20513;-87
2020/12/20 01:21:26;;;;;;;98.82;40.35;;;-0.10;99.90;;;;;;5052093;28;20108;-85
2020/12/20 01:23:52;;;;;;;92.35;39.25;;;-0.10;99.90;;;;;;5069087;28;20128;-85
2020/12/20 01:26:18;;;;;;;122.53;47.90;;;-0.10;99.90;;;;;;5072133;28;20021;-85
2020/12/20 01:28:44;;;;;;;106.25;44.45;;;-0.10;99.90;;;;;;5071931;28;20496;-85
2020/12/20 01:31:11;;;;;;;101.00;43.88;;;-0.10;99.90;;;;;;5053955;28;20167;-85
2020/12/20 01:33:41;;;;;;;104.88;41.78;;;-0.10;99.90;;;;;;5073359;28;20029;-85
2020/12/20 01:36:11;;;;;;;86.78;39.65;;;0.00;99.90;;;;;;5072600;28;20099;-86
2020/12/20 01:38:38;;;;;;;103.97;40.17;;;0.00;99.90;;;;;;5054426;28;20367;-85
2020/12/20 01:41:05;;;;;;;98.40;42.13;;;0.00;99.90;;;;;;5072256;28;20074;-85
2020/12/20 01:43:52;;;;;;;113.40;43.75;;;0.00;99.90;;;;;;5072335;28;20414;-85
2020/12/20 01:46:19;;;;;;;101.93;43.95;;;0.00;99.90;;;;;;5072459;28;20073;-85
2020/12/20 01:48:46;;;;;;;103.55;42.60;;;0.00;99.90;;;;;;5072498;28;20042;-85
2020/12/20 01:51:12;;;;;;;100.32;44.30;;;0.10;99.90;;;;;;5072476;28;20099;-84
2020/12/20 01:53:39;;;;;;;109.07;45.00;;;0.10;99.90;;;;;;5058087;28;20048;-85
2020/12/20 01:56:05;;;;;;;128.02;44.92;;;0.20;99.90;;;;;;5051831;28;20386;-85
2020/12/20 01:58:36;;;;;;;101.05;41.15;;;0.20;99.90;;;;;;5035612;28;20021;-85
2020/12/20 02:01:09;;;;;;;106.57;46.88;;;0.20;99.90;;;;;;5053106;28;20079;-84
2020/12/20 02:03:36;;;;;;;112.80;44.70;;;0.20;99.90;;;;;;5052163;28;20045;-86
2020/12/20 02:06:03;;;;;;;109.95;43.40;;;0.30;99.90;;;;;;5051825;28;20025;-85
2020/12/20 02:08:29;;;;;;;118.85;44.95;;;0.30;99.90;;;;;;5067557;28;20028;-85
2020/12/20 02:11:16;;;;;;;104.82;43.90;;;0.30;99.90;;;;;;5052035;28;20474;-85
2020/12/20 02:13:46;;;;;;;101.25;41.38;;;0.30;99.90;;;;;;5058103;28;20032;-84
2020/12/20 02:16:19;;;;;;;118.65;43.13;;;0.30;99.90;;;;;;5074202;28;20027;-85
2020/12/20 02:18:45;;;;;;;130.45;49.75;;;0.30;99.90;;;;;;5074396;28;20085;-86
2020/12/20 02:21:29;;;;;;;146.10;57.60;;;0.40;99.90;;;;;;5072429;28;20024;-85
2020/12/20 02:23:55;;;;;;;139.68;56.90;;;0.40;99.90;;;;;;5071976;28;20028;-85
2020/12/20 02:26:23;;;;;;;118.15;44.88;;;0.40;99.90;;;;;;5072122;28;20074;-85
2020/12/20 02:28:53;;;;;;;108.43;44.80;;;0.40;99.90;;;;;;5072563;28;20393;-85
2020/12/20 02:31:20;;;;;;;115.07;43.22;;;0.40;99.90;;;;;;5052663;28;20029;-85
2020/12/20 02:33:46;;;;;;;105.18;43.50;;;0.40;99.90;;;;;;5073692;28;20488;-85
2020/12/20 02:36:13;;;;;;;121.47;45.67;;;0.40;99.90;;;;;;5075631;28;20067;-85
2020/12/20 02:38:39;;;;;;;111.20;42.83;;;0.50;99.90;;;;;;5079212;28;20056;-86
2020/12/20 02:41:05;;;;;;;120.05;41.90;;;0.50;99.90;;;;;;5078320;28;20032;-86
2020/12/20 02:43:30;;;;;;;101.35;37.80;;;0.50;99.90;;;;;;5071405;28;20044;-86
2020/12/20 02:45:56;;;;;;;102.07;40.00;;;0.50;99.90;;;;;;5037539;28;20035;-86
2020/12/20 02:48:22;;;;;;;98.53;41.70;;;0.50;99.90;;;;;;5038100;28;20040;-84
2020/12/20 02:50:48;;;;;;;100.10;42.72;;;0.50;99.90;;;;;;5043624;28;20371;-85
2020/12/20 02:53:13;;;;;;;96.30;41.45;;;0.50;99.90;;;;;;5057798;28;20032;-85
2020/12/20 02:55:39;;;;;;;98.13;39.50;;;0.50;99.90;;;;;;5075671;28;20027;-85
2020/12/20 02:58:05;;;;;;;104.75;41.40;;;0.50;99.90;;;;;;5075648;28;20070;-85
2020/12/20 03:00:31;;;;;;;117.68;45.17;;;0.60;99.90;;;;;;5076092;28;20028;-85
2020/12/20 03:02:58;;;;;;;100.05;38.42;;;0.50;99.90;;;;;;5074771;28;20051;-85
2020/12/20 03:05:24;;;;;;;99.82;41.17;;;0.50;99.90;;;;;;5074382;28;20017;-85
2020/12/20 03:07:49;;;;;;;96.90;39.58;;;0.50;99.90;;;;;;5057343;28;20036;-85
2020/12/20 03:10:17;;;;;;;95.88;39.25;;;0.50;99.90;;;;;;5057074;28;20134;-85
2020/12/20 03:12:44;;;;;;;100.05;40.15;;;0.50;99.90;;;;;;5057216;28;20078;-85
2020/12/20 03:15:10;;;;;;;103.22;40.97;;;0.50;99.90;;;;;;5039109;28;20081;-85
2020/12/20 03:17:35;;;;;;;95.35;39.55;;;0.50;99.90;;;;;;5055559;28;20013;-85
2020/12/20 03:20:02;;;;;;;100.43;39.90;;;0.50;99.90;;;;;;5056903;28;20055;-85
2020/12/20 03:22:28;;;;;;;110.80;43.70;;;0.50;99.90;;;;;;5069947;28;20443;-86
2020/12/20 03:24:54;;;;;;;104.15;40.35;;;0.60;99.90;;;;;;5055498;28;20127;-85
2020/12/20 03:27:20;;;;;;;93.60;36.08;;;0.60;99.90;;;;;;5056856;28;20043;-85
2020/12/20 03:29:46;;;;;;;97.25;38.13;;;0.50;99.90;;;;;;5075085;28;20036;-85
2020/12/20 03:32:11;;;;;;;87.45;38.03;;;0.50;99.90;;;;;;5074729;28;20121;-86
2020/12/20 03:34:37;;;;;;;88.57;32.63;;;0.50;99.90;;;;;;5078244;28;20021;-87
2020/12/20 03:37:03;;;;;;;90.35;34.80;;;0.50;99.90;;;;;;5056895;28;20063;-85
2020/12/20 03:39:29;;;;;;;83.22;34.70;;;0.50;99.90;;;;;;5074613;28;20020;-85
2020/12/20 03:41:55;;;;;;;85.10;36.67;;;0.50;99.90;;;;;;5074530;28;20032;-85
2020/12/20 03:44:21;;;;;;;81.63;37.22;;;0.50;99.90;;;;;;5073908;28;20021;-85
2020/12/20 03:46:47;;;;;;;91.60;37.22;;;0.50;99.90;;;;;;5056496;28;20046;-85
2020/12/20 03:49:13;;;;;;;110.80;43.45;;;0.50;99.90;;;;;;5074310;28;20028;-85
2020/12/20 03:51:38;;;;;;;102.80;42.08;;;0.60;99.90;;;;;;5074012;28;20103;-85
2020/12/20 03:54:04;;;;;;;93.70;37.90;;;0.60;99.90;;;;;;5077788;28;20024;-85
2020/12/20 03:56:30;;;;;;;92.97;37.13;;;0.60;99.90;;;;;;5056601;28;20059;-85
2020/12/20 03:58:56;;;;;;;91.05;36.78;;;0.60;99.90;;;;;;5060277;28;20021;-85
2020/12/20 04:01:22;;;;;;;93.05;36.58;;;0.50;99.90;;;;;;5036458;28;20086;-85
2020/12/20 04:03:48;;;;;;;85.82;35.45;;;0.50;99.90;;;;;;5054103;28;20029;-85
2020/12/20 04:06:15;;;;;;;98.50;35.75;;;0.50;99.90;;;;;;5068232;28;20409;-86
2020/12/20 04:08:41;;;;;;;86.13;33.85;;;0.60;99.90;;;;;;5036358;28;20466;-86
2020/12/20 04:11:07;;;;;;;84.32;35.60;;;0.50;99.90;;;;;;5055235;28;20040;-85
2020/12/20 04:13:33;;;;;;;84.53;32.90;;;0.50;99.90;;;;;;5053828;28;20029;-85
2020/12/20 04:16:04;;;;;;;84.03;32.92;;;0.60;99.90;;;;;;5053719;28;20021;-86
2020/12/20 04:18:29;;;;;;;87.10;34.97;;;0.60;99.90;;;;;;5055178;28;20071;-85
2020/12/20 04:20:55;;;;;;;79.55;33.33;;;0.60;99.90;;;;;;5073571;28;20029;-85
2020/12/20 04:23:21;;;;;;;85.93;35.53;;;0.60;99.90;;;;;;5055784;28;20036;-85
2020/12/20 04:25:47;;;;;;;81.55;35.53;;;0.60;99.90;;;;;;5055972;28;20481;-85
2020/12/20 04:28:13;;;;;;;83.55;35.08;;;0.50;99.90;;;;;;5076081;28;20462;-85
2020/12/20 04:30:38;;;;;;;80.78;36.88;;;0.60;99.90;;;;;;5073498;28;20466;-85
2020/12/20 04:33:04;;;;;;;73.90;33.15;;;0.60;99.90;;;;;;5073248;28;20031;-86
2020/12/20 04:35:30;;;;;;;74.45;32.60;;;0.50;99.90;;;;;;5056545;28;20016;-86
2020/12/20 04:37:56;;;;;;;71.65;30.25;;;0.50;99.90;;;;;;5073694;28;20025;-86
2020/12/20 04:40:24;;;;;;;69.05;33.20;;;0.50;99.90;;;;;;5055279;28;20031;-85
2020/12/20 04:42:50;;;;;;;80.82;33.85;;;0.50;99.90;;;;;;5074217;28;20040;-85
2020/12/20 04:45:17;;;;;;;77.93;34.97;;;0.50;99.90;;;;;;5074734;28;20511;-84
2020/12/20 04:47:46;;;;;;;79.32;32.65;;;0.60;99.90;;;;;;5073346;28;20047;-85
2020/12/20 04:50:12;;;;;;;73.53;34.63;;;0.60;99.90;;;;;;5060951;28;20104;-84
2020/12/20 04:52:42;;;;;;;75.53;29.95;;;0.60;99.90;;;;;;5052948;28;20049;-85
2020/12/20 04:55:08;;;;;;;87.53;38.17;;;0.60;99.90;;;;;;5068642;28;20017;-85
2020/12/20 04:57:34;;;;;;;119.78;54.78;;;0.60;99.90;;;;;;5052789;28;20441;-85
2020/12/20 05:00:09;;;;;;;103.50;46.30;;;0.60;99.90;;;;;;5070874;28;20040;-85
2020/12/20 05:02:35;;;;;;;72.75;37.53;;;0.70;99.90;;;;;;5052904;28;20041;-85
2020/12/20 05:05:01;;;;;;;79.80;34.45;;;0.70;99.90;;;;;;5052866;28;20021;-85
2020/12/20 05:07:26;;;;;;;64.40;31.48;;;0.60;99.90;;;;;;5036656;28;20116;-85
2020/12/20 05:09:52;;;;;;;75.30;33.80;;;0.60;99.90;;;;;;5052684;28;20036;-85
2020/12/20 05:12:31;;;;;;;62.63;27.80;;;0.60;99.90;;;;;;5053213;28;20080;-85
2020/12/20 05:14:57;;;;;;;54.42;26.13;;;0.50;99.90;;;;;;5055315;28;20048;-85
2020/12/20 05:17:24;;;;;;;65.15;25.55;;;0.50;99.90;;;;;;5052339;28;20513;-85
2020/12/20 05:19:50;;;;;;;60.05;26.05;;;0.40;99.90;;;;;;5062370;28;20527;-85
2020/12/20 05:22:20;;;;;;;57.42;27.85;;;0.40;99.90;;;;;;5073587;28;20068;-85
2020/12/20 05:24:47;;;;;;;68.70;28.60;;;0.30;99.90;;;;;;5055689;28;20024;-85
2020/12/20 05:27:30;;;;;;;52.67;26.58;;;0.30;99.90;;;;;;5072523;28;20028;-85
2020/12/20 05:30:10;;;;;;;56.08;26.50;;;0.30;99.90;;;;;;5054621;28;20583;-85
2020/12/20 05:32:42;;;;;;;56.58;26.27;;;0.20;99.90;;;;;;5056356;28;20021;-85
2020/12/20 05:35:14;;;;;;;55.95;26.95;;;0.30;99.90;;;;;;5072532;28;20022;-85
2020/12/20 05:37:41;;;;;;;64.50;28.05;;;0.20;99.90;;;;;;5072610;28;20029;-85
2020/12/20 05:40:09;;;;;;;63.92;28.45;;;0.20;99.90;;;;;;5072382;28;20028;-85
2020/12/20 05:42:36;;;;;;;54.33;24.60;;;0.20;99.90;;;;;;5072369;28;20045;-86
2020/12/20 05:45:17;;;;;;;59.13;27.38;;;0.20;99.90;;;;;;5072770;28;20044;-85
2020/12/20 05:47:44;;;;;;;62.00;28.50;;;0.20;99.90;;;;;;5054356;28;20078;-85
2020/12/20 05:50:12;;;;;;;69.65;30.90;;;0.20;99.90;;;;;;5057976;28;20114;-84
2020/12/20 05:52:39;;;;;;;75.75;31.05;;;0.20;99.90;;;;;;5069065;28;20017;-85
2020/12/20 05:55:11;;;;;;;76.07;34.03;;;0.20;99.90;;;;;;5052328;28;20055;-85
2020/12/20 05:57:37;;;;;;;75.30;34.97;;;0.20;99.90;;;;;;5052306;28;20108;-84
2020/12/20 06:00:04;;;;;;;87.60;39.33;;;0.20;99.90;;;;;;5052517;28;20059;-85
2020/12/20 06:02:30;;;;;;;74.95;33.28;;;0.20;99.90;;;;;;5052376;28;20040;-84
2020/12/20 06:04:56;;;;;;;79.07;34.47;;;0.20;99.90;;;;;;5052611;28;20014;-83
2020/12/20 06:07:26;;;;;;;75.07;32.72;;;0.30;99.90;;;;;;5053285;28;20052;-84
2020/12/20 06:09:54;;;;;;;74.15;33.28;;;0.30;99.90;;;;;;5055959;28;20021;-84
2020/12/20 06:12:26;;;;;;;76.43;31.45;;;0.30;99.90;;;;;;5056163;28;20021;-85
2020/12/20 06:14:52;;;;;;;73.25;32.58;;;0.40;99.90;;;;;;5058468;28;20025;-85
2020/12/20 06:17:20;;;;;;;73.03;31.65;;;0.40;99.90;;;;;;5056479;28;20095;-85
2020/12/20 06:20:04;;;;;;;71.32;29.95;;;0.40;99.90;;;;;;5066726;28;20082;-85
2020/12/20 06:22:36;;;;;;;69.85;30.38;;;0.40;99.90;;;;;;5075928;28;20119;-84
2020/12/20 06:25:04;;;;;;;77.70;30.90;;;0.50;99.90;;;;;;5076929;28;20035;-84
2020/12/20 06:27:32;;;;;;;83.68;32.78;;;0.50;99.90;;;;;;5057176;28;20478;-84
2020/12/20 06:30:00;;;;;;;86.97;32.10;;;0.60;99.90;;;;;;5076763;28;20024;-84
2020/12/20 06:32:59;;;;;;;80.47;35.22;;;0.60;99.90;;;;;;5075684;28;20504;-85
2020/12/20 06:35:29;;;;;;;72.57;33.33;;;0.60;99.90;;;;;;5075736;28;20033;-84
2020/12/20 06:37:56;;;;;;;68.88;29.65;;;0.60;99.90;;;;;;5075238;28;20021;-84
2020/12/20 06:40:31;;;;;;;81.82;33.80;;;0.60;99.90;;;;;;5075644;28;20043;-84
2020/12/20 06:42:58;;;;;;;79.63;35.10;;;0.60;99.90;;;;;;5075678;28;20044;-84
2020/12/20 06:45:26;;;;;;;81.07;32.03;;;0.60;99.90;;;;;;5075354;28;20017;-85
2020/12/20 06:47:53;;;;;;;77.75;31.27;;;0.70;99.90;;;;;;5074666;28;20025;-86
2020/12/20 06:50:37;;;;;;;69.15;32.40;;;0.70;99.90;;;;;;5074092;28;20047;-85
2020/12/20 06:53:03;;;;;;;80.55;31.95;;;0.80;99.90;;;;;;5072795;28;20024;-86
2020/12/20 06:55:29;;;;;;;98.93;38.67;;;0.80;99.90;;;;;;5042183;28;20036;-86
2020/12/20 06:58:06;;;;;;;103.30;40.30;;;0.80;99.90;;;;;;5055346;28;20025;-86
2020/12/20 07:00:44;;;;;;;96.13;39.38;;;0.80;99.90;;;;;;5055107;28;20542;-86
2020/12/20 07:03:37;;;;;;;97.25;42.90;;;0.90;99.90;;;;;;5071984;28;20047;-85
2020/12/20 07:06:10;;;;;;;114.88;42.88;;;0.90;99.90;;;;;;5056834;28;20386;-86
2020/12/20 07:08:37;;;;;;;105.05;42.20;;;1.00;99.90;;;;;;5057024;28;20021;-86
2020/12/20 07:11:16;;;;;;;107.55;35.83;;;1.00;99.90;;;;;;5057185;28;20032;-86
2020/12/20 07:13:44;;;;;;;98.90;36.05;;;0.90;99.90;;;;;;5071667;28;20032;-84
2020/12/20 07:16:15;;;;;;;87.80;34.80;;;1.00;99.90;;;;;;5072061;28;20024;-86
2020/12/20 07:19:00;;;;;;;92.78;38.17;;;1.00;99.90;;;;;;5070048;28;20082;-84
2020/12/20 07:21:29;;;;;;;110.00;43.97;;;1.00;99.90;;;;;;5071074;28;20032;-83
2020/12/20 07:24:10;;;;;;;107.53;42.75;;;1.10;99.90;;;;;;5066587;28;20506;-85
2020/12/20 07:26:37;;;;;;;106.28;42.72;;;1.10;99.90;;;;;;5070355;28;20110;-83
2020/12/20 07:29:04;;;;;;;123.30;45.90;;;1.10;99.90;;;;;;5071461;28;20068;-85
2020/12/20 07:31:30;;;;;;;129.30;47.25;;;1.10;99.90;;;;;;5071346;28;20440;-85
2020/12/20 07:33:57;;;;;;;126.80;49.25;;;1.20;99.90;;;;;;5046674;28;20024;-84
2020/12/20 07:36:24;;;;;;;129.05;48.30;;;1.20;99.90;;;;;;5067833;28;20039;-85
2020/12/20 07:38:50;;;;;;;109.55;49.85;;;1.20;99.90;;;;;;5054269;28;20127;-85
2020/12/20 07:41:17;;;;;;;139.68;51.30;;;1.20;99.90;;;;;;5072342;28;20016;-84
2020/12/20 07:43:43;;;;;;;132.35;49.78;;;1.20;99.90;;;;;;5070207;28;20417;-83
2020/12/20 07:46:12;;;;;;;130.32;48.75;;;1.20;99.90;;;;;;5051990;28;20025;-84
2020/12/20 07:48:39;;;;;;;118.28;45.90;;;1.30;99.90;;;;;;5068820;28;20453;-83
2020/12/20 07:51:21;;;;;;;116.30;45.75;;;1.30;99.90;;;;;;5071499;28;20095;-84
2020/12/20 07:53:47;;;;;;;117.28;43.80;;;1.30;99.90;;;;;;5053052;28;20123;-84
2020/12/20 07:56:37;;;;;;;136.15;48.35;;;1.40;99.90;;;;;;5077257;28;20493;-84
2020/12/20 07:59:08;;;;;;;156.00;59.58;;;1.50;99.90;;;;;;5044985;28;20065;-84
2020/12/20 08:01:36;;;;;;;149.55;56.95;;;1.50;99.90;;;;;;5061137;28;20092;-85
2020/12/20 08:04:06;;;;;;;164.52;55.50;;;1.60;99.90;;;;;;5059838;28;20033;-85
2020/12/20 08:06:38;;;;;;;105.90;36.47;;;1.60;99.90;;;;;;5060344;28;21611;-84
2020/12/20 08:09:10;;;;;;;100.22;34.78;;;1.70;99.90;;;;;;5063437;28;20134;-86
2020/12/20 08:11:36;;;;;;;165.32;55.13;;;1.60;99.90;;;;;;5040883;28;20029;-85
2020/12/20 08:14:07;;;;;;;99.38;36.17;;;1.70;99.90;;;;;;5065490;28;20036;-86
2020/12/20 08:16:35;;;;;;;84.85;28.55;;;1.70;99.90;;;;;;5065843;28;20024;-85
2020/12/20 08:19:08;;;;;;;62.40;23.95;;;1.70;99.90;;;;;;5063619;28;20478;-85
2020/12/20 08:22:05;;;;;;;80.63;29.05;;;1.70;99.90;;;;;;5066203;28;20051;-86
2020/12/20 08:24:34;;;;;;;78.25;31.38;;;1.70;99.90;;;;;;5048765;28;20375;-86
2020/12/20 08:27:15;;;;;;;95.53;35.85;;;1.70;99.90;;;;;;5067419;28;20382;-85
2020/12/20 08:29:48;;;;;;;92.57;34.60;;;1.80;99.90;;;;;;5067982;28;20072;-85
2020/12/20 08:32:19;;;;;;;96.03;34.30;;;1.80;99.90;;;;;;5066661;28;20008;-87
2020/12/20 08:34:46;;;;;;;66.45;25.48;;;1.80;99.90;;;;;;5052138;28;20053;-87
2020/12/20 08:37:15;;;;;;;64.60;22.45;;;1.80;99.90;;;;;;5070056;28;20039;-88
2020/12/20 08:39:41;;;;;;;64.15;24.77;;;1.80;99.90;;;;;;5065243;28;20106;-87
2020/12/20 08:42:09;;;;;;;71.53;24.70;;;1.80;99.90;;;;;;5053302;28;20031;-87
2020/12/20 08:44:35;;;;;;;85.80;29.73;;;1.90;99.90;;;;;;5073213;28;20035;-87
2020/12/20 08:47:13;;;;;;;69.97;27.83;;;1.90;99.90;;;;;;5054563;28;20047;-87
2020/12/20 08:49:41;;;;;;;71.25;28.17;;;1.90;99.90;;;;;;5050747;28;20497;-88
2020/12/20 08:52:14;;;;;;;77.15;21.65;;;1.90;99.90;;;;;;5065676;28;20035;-87
2020/12/20 08:54:41;;;;;;;74.68;27.08;;;1.90;99.90;;;;;;5047776;28;20355;-87
2020/12/20 08:57:10;;;;;;;67.32;20.58;;;2.00;99.90;;;;;;5068700;28;20025;-87
2020/12/20 08:59:39;;;;;;;76.10;23.48;;;2.00;99.90;;;;;;5068055;28;20377;-87
2020/12/20 09:02:06;;;;;;;68.32;22.70;;;2.00;99.90;;;;;;5050463;28;20055;-87
2020/12/20 09:04:35;;;;;;;81.40;25.77;;;1.90;99.90;;;;;;5068785;28;20054;-87
2020/12/20 09:07:06;;;;;;;88.68;27.08;;;1.80;99.90;;;;;;5068855;28;20035;-87
2020/12/20 09:09:32;;;;;;;86.43;27.98;;;1.80;99.90;;;;;;5047487;28;20434;-87
2020/12/20 09:12:15;;;;;;;98.18;33.17;;;1.80;99.90;;;;;;5067945;28;20162;-86
2020/12/20 09:14:41;;;;;;;;;;;1.70;99.90;;;;;;5071121;28;20040;-86
2020/12/20 09:17:07;;;;;;;107.65;30.60;;;1.80;99.90;;;;;;5050369;28;19912;-87
2020/12/20 09:19:33;;;;;;;84.03;25.42;;;1.80;99.90;;;;;;5051672;28;20024;-87
2020/12/20 09:21:58;;;;;;;97.25;25.25;;;1.80;99.90;;;;;;5067969;28;20531;-86
2020/12/20 09:24:25;;;;;;;118.85;26.80;;;1.70;99.90;;;;;;5069077;28;20035;-85
2020/12/20 09:27:00;;;;;;;97.88;26.67;;;1.70;99.90;;;;;;5071169;28;20035;-84
2020/12/20 09:29:26;;;;;;;136.73;27.13;;;1.70;99.90;;;;;;5069429;28;20485;-85
2020/12/20 09:31:53;;;;;;;106.50;29.13;;;1.70;99.90;;;;;;5071377;28;20091;-85
2020/12/20 09:34:32;;;;;;;68.57;24.17;;;1.70;99.90;;;;;;5071521;28;20024;-85
2020/12/20 09:37:03;;;;;;;99.50;25.35;;;1.80;99.90;;;;;;5068034;28;20043;-85
2020/12/20 09:39:29;;;;;;;83.53;23.13;;;1.70;99.90;;;;;;5049150;28;20416;-85
2020/12/20 09:41:54;;;;;;;69.55;29.33;;;1.70;99.90;;;;;;5067621;28;20044;-85
2020/12/20 09:44:20;;;;;;;92.10;27.75;;;1.70;99.90;;;;;;5067670;28;20401;-85
2020/12/20 09:46:48;;;;;;;106.22;27.13;;;1.70;99.90;;;;;;5069225;28;20466;-85
2020/12/20 09:49:14;;;;;;;106.40;27.88;;;1.70;99.90;;;;;;5051128;28;20053;-85
2020/12/20 09:51:40;;;;;;;113.70;25.15;;;1.70;99.90;;;;;;5069188;28;20028;-85
2020/12/20 09:54:06;;;;;;;108.28;25.38;;;1.70;99.90;;;;;;5067929;28;20036;-81
2020/12/20 09:56:31;;;;;;;94.07;23.33;;;1.70;99.90;;;;;;5068373;28;20553;-83
2020/12/20 09:58:57;;;;;;;108.25;24.20;;;1.70;99.90;;;;;;5061247;28;20046;-84
2020/12/20 10:01:27;;;;;;;85.35;22.52;;;1.60;99.90;;;;;;5066112;28;20024;-82
2020/12/20 10:03:53;;;;;;;86.25;26.48;;;1.70;99.90;;;;;;5057171;28;20389;-86
2020/12/20 10:06:19;;;;;;;68.30;23.40;;;1.70;99.90;;;;;;5069378;28;20013;-85
2020/12/20 10:08:45;;;;;;;90.57;26.10;;;1.80;99.90;;;;;;5071537;28;20035;-87
2020/12/20 10:11:15;;;;;;;75.00;23.48;;;1.70;99.90;;;;;;5050367;28;20473;-86
2020/12/20 10:13:41;;;;;;;72.05;21.92;;;1.80;99.90;;;;;;5066733;28;20312;-87
2020/12/20 10:16:07;;;;;;;92.13;26.80;;;1.80;99.90;;;;;;5068569;28;20175;-87
2020/12/20 10:18:32;;;;;;;92.53;25.90;;;1.90;99.90;;;;;;5068838;28;20032;-87
2020/12/20 10:20:59;;;;;;;86.10;25.30;;;1.90;99.90;;;;;;5067255;28;20021;-87
2020/12/20 10:23:25;;;;;;;56.97;23.60;;;1.90;99.90;;;;;;5068553;28;20044;-87
2020/12/20 10:25:51;;;;;;;88.13;28.58;;;2.00;99.90;;;;;;5067351;28;20025;-86
2020/12/20 10:28:16;;;;;;;94.75;29.50;;;2.10;99.90;;;;;;5069112;28;20032;-88
2020/12/20 10:30:42;;;;;;;70.10;23.98;;;2.10;99.90;;;;;;5064651;28;20119;-86
2020/12/20 10:33:08;;;;;;;122.40;40.05;;;2.10;99.90;;;;;;5067147;28;20177;-87
2020/12/20 10:35:34;;;;;;;120.07;47.33;;;2.20;99.90;;;;;;5068362;28;20467;-86
2020/12/20 10:38:00;;;;;;;146.18;40.80;;;2.20;99.90;;;;;;5050691;28;20029;-87
2020/12/20 10:40:29;;;;;;;53.15;22.88;;;2.20;99.90;;;;;;5049878;28;20496;-86
2020/12/20 10:42:55;;;;;;;58.13;24.63;;;2.20;99.90;;;;;;5068811;28;20041;-87
2020/12/20 10:45:21;;;;;;;102.78;28.67;;;2.20;99.90;;;;;;5050017;28;20027;-87
2020/12/20 10:47:46;;;;;;;65.95;25.25;;;2.20;99.90;;;;;;5050361;28;20033;-87
2020/12/20 10:50:13;;;;;;;71.38;25.77;;;2.10;99.90;;;;;;5070926;28;20020;-87
2020/12/20 10:52:39;;;;;;;87.18;27.92;;;2.20;99.90;;;;;;5070725;28;20028;-88
2020/12/20 10:55:05;;;;;;;95.00;29.27;;;2.20;99.90;;;;;;5063395;28;20025;-87
2020/12/20 10:57:32;;;;;;;83.20;26.65;;;2.30;99.90;;;;;;5036445;28;20399;-87
2020/12/20 10:59:57;;;;;;;70.63;28.05;;;2.30;99.90;;;;;;5055129;28;20028;-86
2020/12/20 11:02:23;;;;;;;76.60;29.20;;;2.30;99.90;;;;;;5096086;28;20041;-87
2020/12/20 11:04:49;;;;;;;99.43;34.90;;;2.40;99.90;;;;;;5072456;28;20024;-87
2020/12/20 11:07:16;;;;;;;71.68;29.98;;;2.40;99.90;;;;;;5072806;28;20505;-87
2020/12/20 11:09:44;;;;;;;161.48;62.58;;;2.40;99.90;;;;;;5067206;28;20096;-86
2020/12/20 11:12:10;;;;;;;133.68;46.10;;;2.50;99.90;;;;;;5049274;28;20028;-87
2020/12/20 11:14:36;;;;;;;441.88;144.65;;;2.50;99.90;;;;;;5051755;28;20494;-88
2020/12/20 11:17:02;;;;;;;322.17;106.80;;;2.50;99.90;;;;;;5046069;28;20028;-87
2020/12/20 11:19:28;;;;;;;159.13;52.50;;;2.40;99.90;;;;;;5069466;28;20032;-87
2020/12/20 11:21:54;;;;;;;169.43;50.17;;;2.40;99.90;;;;;;5052932;28;20256;-87
2020/12/20 11:24:21;;;;;;;97.93;35.45;;;2.50;99.90;;;;;;5071146;28;20059;-87
2020/12/20 11:26:48;;;;;;;114.40;42.47;;;2.40;99.90;;;;;;5067688;28;20056;-88
2020/12/20 11:29:15;;;;;;;94.30;35.85;;;2.40;99.90;;;;;;5063875;28;20500;-86
2020/12/20 11:31:41;;;;;;;71.15;31.15;;;2.40;99.90;;;;;;5068902;28;20048;-87
2020/12/20 11:34:09;;;;;;;75.60;26.52;;;2.40;99.90;;;;;;5067668;28;20078;-87
2020/12/20 11:36:35;;;;;;;59.78;25.90;;;2.40;99.90;;;;;;5071830;28;20080;-87
2020/12/20 11:39:01;;;;;;;72.47;27.15;;;2.50;99.90;;;;;;5069855;28;20111;-87
2020/12/20 11:41:28;;;;;;;84.90;33.63;;;2.50;99.90;;;;;;5072554;28;20736;-88
2020/12/20 11:43:54;;;;;;;68.60;27.85;;;2.50;99.90;;;;;;5066160;28;20091;-87
2020/12/20 11:46:21;;;;;;;69.82;28.80;;;2.60;99.90;;;;;;5073047;28;20474;-88
2020/12/20 11:48:47;;;;;;;63.83;28.10;;;2.60;99.90;;;;;;5073587;28;20060;-87
2020/12/20 11:51:14;;;;;;;59.58;26.48;;;2.60;99.90;;;;;;5068902;28;20051;-87
2020/12/20 11:53:41;;;;;;;86.63;40.08;;;2.60;99.90;;;;;;5056004;28;20039;-87
2020/12/20 11:56:08;;;;;;;62.38;25.10;;;2.60;99.90;;;;;;5068935;28;20056;-87
2020/12/20 11:58:33;;;;;;;61.05;22.00;;;2.60;99.90;;;;;;5054392;28;20183;-88
2020/12/20 12:00:59;;;;;;;56.08;23.08;;;2.60;99.90;;;;;;5072658;28;20569;-84
2020/12/20 12:03:25;;;;;;;57.88;26.80;;;2.60;99.90;;;;;;5074646;28;20036;-86
2020/12/20 12:05:51;;;;;;;62.88;25.77;;;2.50;99.90;;;;;;5054310;28;20020;-85
2020/12/20 12:08:17;;;;;;;57.50;23.63;;;2.50;99.90;;;;;;5073416;28;20029;-86
2020/12/20 12:10:46;;;;;;;53.38;24.45;;;2.50;99.90;;;;;;5055238;28;20020;-86
2020/12/20 12:13:13;;;;;;;82.10;35.03;;;2.50;99.90;;;;;;5088268;28;20016;-85
2020/12/20 12:15:42;;;;;;;103.75;47.08;;;2.50;99.90;;;;;;5077095;28;20032;-86
2020/12/20 12:18:08;;;;;;;59.25;24.33;;;2.50;99.90;;;;;;5071784;28;20025;-89
2020/12/20 12:20:34;;;;;;;68.18;25.15;;;2.40;99.90;;;;;;5072587;28;20529;-86
2020/12/20 12:23:00;;;;;;;56.63;24.38;;;2.40;99.90;;;;;;5073035;28;20044;-87
2020/12/20 12:25:26;;;;;;;44.17;20.85;;;2.40;99.90;;;;;;5073465;28;20054;-87
2020/12/20 12:27:52;;;;;;;41.85;21.42;;;2.40;99.90;;;;;;5059701;28;20036;-86
2020/12/20 12:30:18;;;;;;;77.93;35.53;;;2.40;99.90;;;;;;5035181;28;20363;-88
2020/12/20 12:32:44;;;;;;;48.47;22.38;;;2.40;99.90;;;;;;5068884;28;20102;-85
2020/12/20 12:35:10;;;;;;;45.92;20.08;;;2.30;99.90;;;;;;5055142;28;20020;-84
2020/12/20 12:37:36;;;;;;;59.55;26.38;;;2.30;99.90;;;;;;5073175;28;20081;-86